sensor_id;sensor_type;location;lat;lon;timestamp;temperature;humidity
74368;DHT22;64991;41.090;-8.118;2023-04-24T00:01:54;19.40;85.30
74368;DHT22;64991;41.090;-8.118;2023-04-24T00:06:58;19.50;85.20
74368;DHT22;64991;41.090;-8.118;2023-04-24T00:12:01;19.40;85.30
74368;DHT22;64991;41.090;-8.118;2023-04-24T00:17:08;19.50;85.30
74368;DHT22;64991;41.090;-8.118;2023-04-24T00:22:11;19.40;85.30
74368;DHT22;64991;41.090;-8.118;2023-04-24T00:27:15;19.40;85.30
74368;DHT22;64991;41.090;-8.118;2023-04-24T00:32:20;19.40;85.30
74368;DHT22;64991;41.090;-8.118;2023-04-24T00:37:23;19.40;85.30
74368;DHT22;64991;41.090;-8.118;2023-04-24T00:42:27;19.40;85.50
74368;DHT22;64991;41.090;-8.118;2023-04-24T00:47:32;19.40;85.30
74368;DHT22;64991;41.090;-8.118;2023-04-24T00:52:35;19.40;85.30
74368;DHT22;64991;41.090;-8.118;2023-04-24T00:57:42;19.40;85.30
74368;DHT22;64991;41.090;-8.118;2023-04-24T01:02:47;19.40;85.40
74368;DHT22;64991;41.090;-8.118;2023-04-24T01:07:51;19.40;85.30
74368;DHT22;64991;41.090;-8.118;2023-04-24T01:12:54;19.40;85.50
74368;DHT22;64991;41.090;-8.118;2023-04-24T01:18:03;19.40;85.30
74368;DHT22;64991;41.090;-8.118;2023-04-24T01:23:09;19.40;85.20
74368;DHT22;64991;41.090;-8.118;2023-04-24T01:28:13;19.40;85.30
74368;DHT22;64991;41.090;-8.118;2023-04-24T01:33:16;19.30;85.40
74368;DHT22;64991;41.090;-8.118;2023-04-24T01:38:21;19.30;85.50
74368;DHT22;64991;41.090;-8.118;2023-04-24T01:43:25;19.40;85.40
74368;DHT22;64991;41.090;-8.118;2023-04-24T01:48:28;19.40;85.50
74368;DHT22;64991;41.090;-8.118;2023-04-24T01:53:33;19.40;85.50
74368;DHT22;64991;41.090;-8.118;2023-04-24T01:58:37;19.40;85.30
74368;DHT22;64991;41.090;-8.118;2023-04-24T02:03:40;19.40;85.40
74368;DHT22;64991;41.090;-8.118;2023-04-24T02:08:46;19.40;85.80
74368;DHT22;64991;41.090;-8.118;2023-04-24T02:13:49;19.40;85.50
74368;DHT22;64991;41.090;-8.118;2023-04-24T02:18:53;19.40;85.50
74368;DHT22;64991;41.090;-8.118;2023-04-24T02:23:58;19.40;85.40
74368;DHT22;64991;41.090;-8.118;2023-04-24T02:29:01;19.50;85.60
74368;DHT22;64991;41.090;-8.118;2023-04-24T02:34:04;19.40;85.40
74368;DHT22;64991;41.090;-8.118;2023-04-24T02:39:09;19.40;85.50
74368;DHT22;64991;41.090;-8.118;2023-04-24T02:44:13;19.40;85.60
74368;DHT22;64991;41.090;-8.118;2023-04-24T02:49:16;19.40;85.40
74368;DHT22;64991;41.090;-8.118;2023-04-24T02:54:21;19.40;85.50
74368;DHT22;64991;41.090;-8.118;2023-04-24T02:59:24;19.40;85.70
74368;DHT22;64991;41.090;-8.118;2023-04-24T03:04:28;19.30;85.50
74368;DHT22;64991;41.090;-8.118;2023-04-24T03:09:33;19.40;85.70
74368;DHT22;64991;41.090;-8.118;2023-04-24T03:14:37;19.40;85.50
74368;DHT22;64991;41.090;-8.118;2023-04-24T03:19:40;19.30;85.70
74368;DHT22;64991;41.090;-8.118;2023-04-24T03:24:45;19.40;85.40
74368;DHT22;64991;41.090;-8.118;2023-04-24T03:29:49;19.30;85.60
74368;DHT22;64991;41.090;-8.118;2023-04-24T03:34:55;19.40;85.40
74368;DHT22;64991;41.090;-8.118;2023-04-24T03:40:00;19.30;85.30
74368;DHT22;64991;41.090;-8.118;2023-04-24T03:45:04;19.40;85.60
74368;DHT22;64991;41.090;-8.118;2023-04-24T03:50:08;19.30;85.40
74368;DHT22;64991;41.090;-8.118;2023-04-24T03:55:15;19.30;85.30
74368;DHT22;64991;41.090;-8.118;2023-04-24T04:00:18;19.30;85.20
74368;DHT22;64991;41.090;-8.118;2023-04-24T04:05:22;19.30;85.40
74368;DHT22;64991;41.090;-8.118;2023-04-24T04:10:27;19.30;85.40
74368;DHT22;64991;41.090;-8.118;2023-04-24T04:15:31;19.30;85.40
74368;DHT22;64991;41.090;-8.118;2023-04-24T04:20:34;19.40;85.20
74368;DHT22;64991;41.090;-8.118;2023-04-24T04:25:39;19.40;85.40
74368;DHT22;64991;41.090;-8.118;2023-04-24T04:30:42;19.20;85.10
74368;DHT22;64991;41.090;-8.118;2023-04-24T04:35:47;19.30;85.30
74368;DHT22;64991;41.090;-8.118;2023-04-24T04:40:52;19.30;85.20
74368;DHT22;64991;41.090;-8.118;2023-04-24T04:45:57;19.40;85.40
74368;DHT22;64991;41.090;-8.118;2023-04-24T04:51:02;19.30;85.50
74368;DHT22;64991;41.090;-8.118;2023-04-24T04:56:07;19.30;85.50
74368;DHT22;64991;41.090;-8.118;2023-04-24T05:01:11;19.30;85.60
74368;DHT22;64991;41.090;-8.118;2023-04-24T05:06:14;19.30;85.70
74368;DHT22;64991;41.090;-8.118;2023-04-24T05:11:19;19.40;85.70
74368;DHT22;64991;41.090;-8.118;2023-04-24T05:16:22;19.40;85.40
74368;DHT22;64991;41.090;-8.118;2023-04-24T05:21:26;19.30;85.80
74368;DHT22;64991;41.090;-8.118;2023-04-24T05:26:31;19.30;85.60
74368;DHT22;64991;41.090;-8.118;2023-04-24T05:31:34;19.30;85.80
74368;DHT22;64991;41.090;-8.118;2023-04-24T05:36:37;19.30;85.70
74368;DHT22;64991;41.090;-8.118;2023-04-24T05:41:42;19.40;85.90
74368;DHT22;64991;41.090;-8.118;2023-04-24T05:46:46;19.40;85.80
74368;DHT22;64991;41.090;-8.118;2023-04-24T05:57:13;19.40;85.70
74368;DHT22;64991;41.090;-8.118;2023-04-24T06:02:16;19.30;85.80
74368;DHT22;64991;41.090;-8.118;2023-04-24T06:07:20;19.30;86.00
74368;DHT22;64991;41.090;-8.118;2023-04-24T06:12:28;19.30;86.10
74368;DHT22;64991;41.090;-8.118;2023-04-24T06:17:32;19.30;86.10
74368;DHT22;64991;41.090;-8.118;2023-04-24T06:22:38;19.30;86.00
74368;DHT22;64991;41.090;-8.118;2023-04-24T06:27:43;19.30;86.10
74368;DHT22;64991;41.090;-8.118;2023-04-24T06:32:47;19.40;86.10
74368;DHT22;64991;41.090;-8.118;2023-04-24T06:37:51;19.30;86.00
74368;DHT22;64991;41.090;-8.118;2023-04-24T06:42:56;19.30;86.30
74368;DHT22;64991;41.090;-8.118;2023-04-24T06:48:00;19.30;86.10
74368;DHT22;64991;41.090;-8.118;2023-04-24T06:53:03;19.30;86.30
74368;DHT22;64991;41.090;-8.118;2023-04-24T06:58:08;19.40;86.00
74368;DHT22;64991;41.090;-8.118;2023-04-24T07:03:12;19.40;86.20
74368;DHT22;64991;41.090;-8.118;2023-04-24T07:08:16;19.40;86.50
74368;DHT22;64991;41.090;-8.118;2023-04-24T07:13:21;19.40;86.30
74368;DHT22;64991;41.090;-8.118;2023-04-24T07:18:25;19.40;86.20
74368;DHT22;64991;41.090;-8.118;2023-04-24T07:23:28;19.30;86.20
74368;DHT22;64991;41.090;-8.118;2023-04-24T07:28:33;19.40;86.40
74368;DHT22;64991;41.090;-8.118;2023-04-24T07:33:37;19.40;86.00
74368;DHT22;64991;41.090;-8.118;2023-04-24T07:38:40;19.40;86.40
74368;DHT22;64991;41.090;-8.118;2023-04-24T07:43:46;19.40;86.40
74368;DHT22;64991;41.090;-8.118;2023-04-24T07:48:49;19.40;86.50
74368;DHT22;64991;41.090;-8.118;2023-04-24T07:54:12;19.40;86.50
74368;DHT22;64991;41.090;-8.118;2023-04-24T07:59:17;19.40;86.60
74368;DHT22;64991;41.090;-8.118;2023-04-24T08:04:21;19.40;86.70
74368;DHT22;64991;41.090;-8.118;2023-04-24T08:09:24;19.40;86.50
74368;DHT22;64991;41.090;-8.118;2023-04-24T08:14:29;19.50;86.70
74368;DHT22;64991;41.090;-8.118;2023-04-24T08:19:33;19.40;86.70
74368;DHT22;64991;41.090;-8.118;2023-04-24T08:24:36;19.50;86.50
74368;DHT22;64991;41.090;-8.118;2023-04-24T08:29:41;19.50;86.40
74368;DHT22;64991;41.090;-8.118;2023-04-24T08:34:45;19.60;86.50
74368;DHT22;64991;41.090;-8.118;2023-04-24T08:39:50;19.50;86.70
74368;DHT22;64991;41.090;-8.118;2023-04-24T08:44:55;19.50;86.40
74368;DHT22;64991;41.090;-8.118;2023-04-24T08:49:59;19.50;86.70
74368;DHT22;64991;41.090;-8.118;2023-04-24T08:55:05;19.40;86.70
74368;DHT22;64991;41.090;-8.118;2023-04-24T09:00:11;19.50;86.70
74368;DHT22;64991;41.090;-8.118;2023-04-24T09:05:16;19.50;86.80
74368;DHT22;64991;41.090;-8.118;2023-04-24T09:10:21;19.50;86.60
74368;DHT22;64991;41.090;-8.118;2023-04-24T09:15:27;19.50;86.30
74368;DHT22;64991;41.090;-8.118;2023-04-24T09:20:30;19.50;86.50
74368;DHT22;64991;41.090;-8.118;2023-04-24T09:25:35;19.60;86.20
74368;DHT22;64991;41.090;-8.118;2023-04-24T09:30:40;19.70;86.60
74368;DHT22;64991;41.090;-8.118;2023-04-24T09:35:50;19.70;86.50
74368;DHT22;64991;41.090;-8.118;2023-04-24T09:40:55;19.70;86.40
74368;DHT22;64991;41.090;-8.118;2023-04-24T09:46:05;19.80;86.30
74368;DHT22;64991;41.090;-8.118;2023-04-24T09:51:09;19.80;86.40
74368;DHT22;64991;41.090;-8.118;2023-04-24T09:56:13;19.80;86.40
74368;DHT22;64991;41.090;-8.118;2023-04-24T10:01:18;19.90;86.50
74368;DHT22;64991;41.090;-8.118;2023-04-24T10:06:33;19.90;86.50
74368;DHT22;64991;41.090;-8.118;2023-04-24T10:11:37;19.80;86.40
74368;DHT22;64991;41.090;-8.118;2023-04-24T10:16:46;19.90;86.20
74368;DHT22;64991;41.090;-8.118;2023-04-24T10:21:50;19.80;86.40
74368;DHT22;64991;41.090;-8.118;2023-04-24T10:26:53;20.00;86.40
74368;DHT22;64991;41.090;-8.118;2023-04-24T10:31:59;19.90;86.10
74368;DHT22;64991;41.090;-8.118;2023-04-24T10:37:03;19.90;86.10
74368;DHT22;64991;41.090;-8.118;2023-04-24T10:42:13;20.00;86.30
74368;DHT22;64991;41.090;-8.118;2023-04-24T10:47:19;20.00;86.00
74368;DHT22;64991;41.090;-8.118;2023-04-24T10:52:26;20.00;86.10
74368;DHT22;64991;41.090;-8.118;2023-04-24T10:58:02;20.00;86.10
74368;DHT22;64991;41.090;-8.118;2023-04-24T11:03:22;20.00;85.70
74368;DHT22;64991;41.090;-8.118;2023-04-24T11:08:28;20.00;86.10
74368;DHT22;64991;41.090;-8.118;2023-04-24T11:19:11;20.00;86.00
74368;DHT22;64991;41.090;-8.118;2023-04-24T11:24:22;20.00;85.90
74368;DHT22;64991;41.090;-8.118;2023-04-24T11:29:43;19.90;85.80
74368;DHT22;64991;41.090;-8.118;2023-04-24T11:34:49;19.90;85.90
74368;DHT22;64991;41.090;-8.118;2023-04-24T11:39:54;20.00;85.60
74368;DHT22;64991;41.090;-8.118;2023-04-24T11:44:58;19.90;85.10
74368;DHT22;64991;41.090;-8.118;2023-04-24T11:50:06;19.90;85.00
74368;DHT22;64991;41.090;-8.118;2023-04-24T11:55:22;19.90;84.40
74368;DHT22;64991;41.090;-8.118;2023-04-24T12:00:28;20.00;84.50
74368;DHT22;64991;41.090;-8.118;2023-04-24T12:05:33;20.00;84.50
74368;DHT22;64991;41.090;-8.118;2023-04-24T12:10:38;19.90;85.30
74368;DHT22;64991;41.090;-8.118;2023-04-24T12:15:41;20.10;85.50
74368;DHT22;64991;41.090;-8.118;2023-04-24T12:20:46;20.20;85.70
74368;DHT22;64991;41.090;-8.118;2023-04-24T12:25:50;20.20;85.60
74368;DHT22;64991;41.090;-8.118;2023-04-24T12:30:55;20.20;86.30
74368;DHT22;64991;41.090;-8.118;2023-04-24T12:36:00;20.20;86.30
74368;DHT22;64991;41.090;-8.118;2023-04-24T12:41:04;20.30;86.20
74368;DHT22;64991;41.090;-8.118;2023-04-24T12:46:08;20.40;86.40
74368;DHT22;64991;41.090;-8.118;2023-04-24T12:51:13;20.30;86.60
74368;DHT22;64991;41.090;-8.118;2023-04-24T12:56:17;20.20;86.70
74368;DHT22;64991;41.090;-8.118;2023-04-24T13:01:21;20.20;86.50
74368;DHT22;64991;41.090;-8.118;2023-04-24T13:06:26;20.20;86.30
74368;DHT22;64991;41.090;-8.118;2023-04-24T13:11:29;20.20;86.30
74368;DHT22;64991;41.090;-8.118;2023-04-24T13:16:33;20.20;86.00
74368;DHT22;64991;41.090;-8.118;2023-04-24T13:21:38;20.30;86.20
74368;DHT22;64991;41.090;-8.118;2023-04-24T13:26:42;20.20;86.00
74368;DHT22;64991;41.090;-8.118;2023-04-24T13:31:45;20.20;85.80
74368;DHT22;64991;41.090;-8.118;2023-04-24T13:36:52;20.20;86.20
74368;DHT22;64991;41.090;-8.118;2023-04-24T13:41:56;20.20;85.60
74368;DHT22;64991;41.090;-8.118;2023-04-24T13:47:00;20.20;85.60
74368;DHT22;64991;41.090;-8.118;2023-04-24T13:52:05;20.30;85.50
74368;DHT22;64991;41.090;-8.118;2023-04-24T13:57:09;20.20;85.60
74368;DHT22;64991;41.090;-8.118;2023-04-24T14:02:12;20.20;85.50
74368;DHT22;64991;41.090;-8.118;2023-04-24T14:07:17;20.30;85.30
74368;DHT22;64991;41.090;-8.118;2023-04-24T14:12:21;20.20;85.70
74368;DHT22;64991;41.090;-8.118;2023-04-24T14:17:24;20.20;85.70
74368;DHT22;64991;41.090;-8.118;2023-04-24T14:22:29;20.20;85.70
74368;DHT22;64991;41.090;-8.118;2023-04-24T14:27:33;20.20;85.30
74368;DHT22;64991;41.090;-8.118;2023-04-24T14:32:37;20.20;85.60
74368;DHT22;64991;41.090;-8.118;2023-04-24T14:37:42;20.20;85.60
74368;DHT22;64991;41.090;-8.118;2023-04-24T14:42:46;20.10;85.50
74368;DHT22;64991;41.090;-8.118;2023-04-24T14:47:49;20.20;85.30
74368;DHT22;64991;41.090;-8.118;2023-04-24T14:52:54;20.20;85.60
74368;DHT22;64991;41.090;-8.118;2023-04-24T14:57:59;20.20;85.30
74368;DHT22;64991;41.090;-8.118;2023-04-24T15:03:03;20.20;85.40
74368;DHT22;64991;41.090;-8.118;2023-04-24T15:08:08;20.20;85.10
74368;DHT22;64991;41.090;-8.118;2023-04-24T15:13:12;20.20;85.40
74368;DHT22;64991;41.090;-8.118;2023-04-24T15:18:15;20.20;85.10
74368;DHT22;64991;41.090;-8.118;2023-04-24T15:23:20;20.20;85.30
74368;DHT22;64991;41.090;-8.118;2023-04-24T15:28:24;20.20;85.10
74368;DHT22;64991;41.090;-8.118;2023-04-24T15:33:28;20.20;84.90
74368;DHT22;64991;41.090;-8.118;2023-04-24T15:38:33;20.20;84.90
74368;DHT22;64991;41.090;-8.118;2023-04-24T15:43:36;20.20;85.20
74368;DHT22;64991;41.090;-8.118;2023-04-24T15:48:41;20.20;84.70
74368;DHT22;64991;41.090;-8.118;2023-04-24T15:53:46;20.10;84.80
74368;DHT22;64991;41.090;-8.118;2023-04-24T15:58:50;20.20;85.00
74368;DHT22;64991;41.090;-8.118;2023-04-24T16:03:54;20.20;84.90
74368;DHT22;64991;41.090;-8.118;2023-04-24T16:08:59;20.20;85.10
74368;DHT22;64991;41.090;-8.118;2023-04-24T16:14:04;20.10;84.80
74368;DHT22;64991;41.090;-8.118;2023-04-24T16:19:11;20.20;85.10
74368;DHT22;64991;41.090;-8.118;2023-04-24T16:24:15;20.20;84.90
74368;DHT22;64991;41.090;-8.118;2023-04-24T16:29:19;20.10;84.70
74368;DHT22;64991;41.090;-8.118;2023-04-24T16:34:23;20.10;85.20
74368;DHT22;64991;41.090;-8.118;2023-04-24T16:39:27;20.10;85.00
74368;DHT22;64991;41.090;-8.118;2023-04-24T16:44:31;20.00;84.90
74368;DHT22;64991;41.090;-8.118;2023-04-24T16:49:35;20.10;85.20
74368;DHT22;64991;41.090;-8.118;2023-04-24T16:54:39;20.10;85.10
74368;DHT22;64991;41.090;-8.118;2023-04-24T16:59:43;20.10;84.90
74368;DHT22;64991;41.090;-8.118;2023-04-24T17:04:46;20.20;84.90
74368;DHT22;64991;41.090;-8.118;2023-04-24T17:09:51;20.10;85.20
74368;DHT22;64991;41.090;-8.118;2023-04-24T17:14:55;20.00;85.30
74368;DHT22;64991;41.090;-8.118;2023-04-24T17:19:58;20.10;85.00
74368;DHT22;64991;41.090;-8.118;2023-04-24T17:25:23;20.20;85.30
74368;DHT22;64991;41.090;-8.118;2023-04-24T17:30:26;20.10;85.30
74368;DHT22;64991;41.090;-8.118;2023-04-24T17:35:29;20.10;84.90
74368;DHT22;64991;41.090;-8.118;2023-04-24T17:40:34;20.20;85.20
74368;DHT22;64991;41.090;-8.118;2023-04-24T17:45:38;20.10;85.20
74368;DHT22;64991;41.090;-8.118;2023-04-24T17:50:42;20.20;85.20
74368;DHT22;64991;41.090;-8.118;2023-04-24T17:55:48;20.10;85.30
74368;DHT22;64991;41.090;-8.118;2023-04-24T18:00:51;20.10;85.20
74368;DHT22;64991;41.090;-8.118;2023-04-24T18:05:55;20.20;85.40
74368;DHT22;64991;41.090;-8.118;2023-04-24T18:11:00;20.10;85.20
74368;DHT22;64991;41.090;-8.118;2023-04-24T18:16:03;20.20;85.30
74368;DHT22;64991;41.090;-8.118;2023-04-24T18:21:07;20.10;85.10
74368;DHT22;64991;41.090;-8.118;2023-04-24T18:26:12;20.10;85.20
74368;DHT22;64991;41.090;-8.118;2023-04-24T18:31:17;20.00;85.10
74368;DHT22;64991;41.090;-8.118;2023-04-24T18:36:21;20.00;85.10
74368;DHT22;64991;41.090;-8.118;2023-04-24T18:41:26;20.10;85.30
74368;DHT22;64991;41.090;-8.118;2023-04-24T18:46:29;20.10;85.20
74368;DHT22;64991;41.090;-8.118;2023-04-24T18:51:38;20.10;84.90
74368;DHT22;64991;41.090;-8.118;2023-04-24T18:56:56;20.10;85.00
74368;DHT22;64991;41.090;-8.118;2023-04-24T19:01:59;20.00;85.20
74368;DHT22;64991;41.090;-8.118;2023-04-24T19:07:03;20.00;85.30
74368;DHT22;64991;41.090;-8.118;2023-04-24T19:12:08;20.00;85.20
74368;DHT22;64991;41.090;-8.118;2023-04-24T19:17:11;20.00;85.30
74368;DHT22;64991;41.090;-8.118;2023-04-24T19:22:15;20.00;85.10
74368;DHT22;64991;41.090;-8.118;2023-04-24T19:27:20;20.00;85.40
74368;DHT22;64991;41.090;-8.118;2023-04-24T19:32:23;20.10;85.50
74368;DHT22;64991;41.090;-8.118;2023-04-24T19:37:27;20.00;85.30
74368;DHT22;64991;41.090;-8.118;2023-04-24T19:42:34;20.00;85.40
74368;DHT22;64991;41.090;-8.118;2023-04-24T19:47:42;20.00;85.30
74368;DHT22;64991;41.090;-8.118;2023-04-24T19:52:46;20.00;85.30
74368;DHT22;64991;41.090;-8.118;2023-04-24T19:57:51;20.00;85.60
74368;DHT22;64991;41.090;-8.118;2023-04-24T20:02:55;20.00;85.40
74368;DHT22;64991;41.090;-8.118;2023-04-24T20:07:58;20.00;85.00
74368;DHT22;64991;41.090;-8.118;2023-04-24T20:13:03;20.00;85.00
74368;DHT22;64991;41.090;-8.118;2023-04-24T20:18:07;20.00;85.20
74368;DHT22;64991;41.090;-8.118;2023-04-24T20:23:10;20.10;85.00
74368;DHT22;64991;41.090;-8.118;2023-04-24T20:28:15;20.00;85.20
74368;DHT22;64991;41.090;-8.118;2023-04-24T20:33:19;20.00;85.30
74368;DHT22;64991;41.090;-8.118;2023-04-24T20:38:22;20.00;85.30
74368;DHT22;64991;41.090;-8.118;2023-04-24T20:43:27;20.00;85.30
74368;DHT22;64991;41.090;-8.118;2023-04-24T20:48:31;20.00;85.50
74368;DHT22;64991;41.090;-8.118;2023-04-24T20:53:34;20.00;85.50
74368;DHT22;64991;41.090;-8.118;2023-04-24T20:58:39;20.00;85.60
74368;DHT22;64991;41.090;-8.118;2023-04-24T21:17:49;19.90;86.40
74368;DHT22;64991;41.090;-8.118;2023-04-24T21:22:54;20.00;86.10
74368;DHT22;64991;41.090;-8.118;2023-04-24T21:28:11;20.00;86.10
74368;DHT22;64991;41.090;-8.118;2023-04-24T21:33:18;20.00;86.30
74368;DHT22;64991;41.090;-8.118;2023-04-24T21:38:22;20.00;86.60
74368;DHT22;64991;41.090;-8.118;2023-04-24T21:43:27;20.00;86.40
74368;DHT22;64991;41.090;-8.118;2023-04-24T21:48:52;20.00;86.50
74368;DHT22;64991;41.090;-8.118;2023-04-24T21:53:56;20.00;86.60
74368;DHT22;64991;41.090;-8.118;2023-04-24T21:58:59;20.00;86.60
74368;DHT22;64991;41.090;-8.118;2023-04-24T22:04:04;20.00;86.50
74368;DHT22;64991;41.090;-8.118;2023-04-24T22:09:08;19.90;85.90
74368;DHT22;64991;41.090;-8.118;2023-04-24T22:14:12;19.80;86.00
74368;DHT22;64991;41.090;-8.118;2023-04-24T22:19:17;19.80;86.40
74368;DHT22;64991;41.090;-8.118;2023-04-24T22:24:20;19.80;86.50
74368;DHT22;64991;41.090;-8.118;2023-04-24T22:29:23;19.90;86.60
74368;DHT22;64991;41.090;-8.118;2023-04-24T22:34:28;20.00;86.50
74368;DHT22;64991;41.090;-8.118;2023-04-24T22:39:32;20.00;86.50
74368;DHT22;64991;41.090;-8.118;2023-04-24T22:44:35;19.90;86.60
74368;DHT22;64991;41.090;-8.118;2023-04-24T22:49:40;19.80;86.70
74368;DHT22;64991;41.090;-8.118;2023-04-24T22:54:44;19.90;86.50
74368;DHT22;64991;41.090;-8.118;2023-04-24T22:59:47;19.90;86.60
74368;DHT22;64991;41.090;-8.118;2023-04-24T23:04:52;19.90;86.60
74368;DHT22;64991;41.090;-8.118;2023-04-24T23:09:55;19.90;86.60
74368;DHT22;64991;41.090;-8.118;2023-04-24T23:14:59;19.90;86.50
74368;DHT22;64991;41.090;-8.118;2023-04-24T23:20:04;19.90;86.50
74368;DHT22;64991;41.090;-8.118;2023-04-24T23:25:09;19.90;86.20
74368;DHT22;64991;41.090;-8.118;2023-04-24T23:30:12;19.80;86.60
74368;DHT22;64991;41.090;-8.118;2023-04-24T23:35:17;19.90;86.60
74368;DHT22;64991;41.090;-8.118;2023-04-24T23:40:20;19.90;86.60
74368;DHT22;64991;41.090;-8.118;2023-04-24T23:45:24;19.90;86.30
74368;DHT22;64991;41.090;-8.118;2023-04-24T23:50:29;19.90;86.60
74368;DHT22;64991;41.090;-8.118;2023-04-24T23:55:32;19.90;86.30
